createdAt,value
2022-08-25T00:00:13.682Z,7.40
2022-08-25T00:02:43.830Z,7.40
2022-08-25T00:05:27.694Z,7.40
2022-08-25T00:07:57.243Z,7.40
2022-08-25T00:10:24.715Z,7.50
2022-08-25T00:12:52.089Z,7.50
2022-08-25T00:15:19.671Z,7.50
2022-08-25T00:17:47.013Z,7.60
2022-08-25T00:20:14.882Z,7.50
2022-08-25T00:22:42.385Z,7.30
2022-08-25T00:25:10.143Z,7.20
2022-08-25T00:27:37.486Z,7.10
2022-08-25T00:30:06.191Z,7.10
2022-08-25T00:32:33.685Z,7.20
2022-08-25T00:35:01.016Z,7.10
2022-08-25T00:37:28.482Z,7.10
2022-08-25T00:39:57.441Z,7.10
2022-08-25T00:42:26.247Z,7.10
2022-08-25T00:44:53.965Z,7.10
2022-08-25T00:47:21.490Z,7.00
2022-08-25T00:49:55.012Z,7.00
2022-08-25T00:52:29.824Z,7.00
2022-08-25T00:55:08.282Z,6.90
2022-08-25T00:58:14.364Z,6.90
2022-08-25T01:00:53.170Z,6.90
2022-08-25T01:03:21.539Z,6.80
2022-08-25T01:05:54.129Z,6.80
2022-08-25T01:08:29.096Z,6.70
2022-08-25T01:10:58.621Z,6.70
2022-08-25T01:13:40.226Z,6.70
2022-08-25T01:16:08.402Z,6.70
2022-08-25T01:18:56.773Z,6.70
2022-08-25T01:21:25.783Z,6.70
2022-08-25T01:23:55.703Z,6.70
2022-08-25T01:26:30.896Z,6.70
2022-08-25T01:29:19.822Z,6.60
2022-08-25T01:31:51.343Z,6.60
2022-08-25T01:34:19.881Z,6.60
2022-08-25T01:36:47.547Z,6.50
2022-08-25T01:39:16.246Z,6.50
2022-08-25T01:41:58.842Z,6.50
2022-08-25T01:44:26.614Z,6.50
2022-08-25T01:46:54.939Z,6.50
2022-08-25T01:49:22.429Z,6.50
2022-08-25T01:52:21.441Z,6.60
2022-08-25T01:54:49.308Z,6.50
2022-08-25T01:57:16.890Z,6.50
2022-08-25T01:59:45.189Z,6.50
2022-08-25T02:02:12.999Z,6.40
2022-08-25T02:04:40.803Z,6.40
2022-08-25T02:07:12.214Z,6.30
2022-08-25T02:09:39.833Z,6.30
2022-08-25T02:12:09.471Z,6.30
2022-08-25T02:14:37.255Z,6.30
2022-08-25T02:17:05.686Z,6.30
2022-08-25T02:19:33.572Z,6.30
2022-08-25T02:22:01.522Z,6.30
2022-08-25T02:24:29.232Z,6.30
2022-08-25T02:26:57.089Z,6.20
2022-08-25T02:29:25.092Z,6.30
2022-08-25T02:31:52.609Z,6.20
2022-08-25T02:34:19.901Z,6.20
2022-08-25T02:36:47.428Z,6.20
2022-08-25T02:39:14.828Z,6.20
2022-08-25T02:41:42.914Z,6.20
2022-08-25T02:44:11.032Z,6.20
2022-08-25T02:46:39.046Z,6.20
2022-08-25T02:49:07.957Z,6.20
2022-08-25T02:51:36.098Z,6.10
2022-08-25T02:54:05.650Z,6.20
2022-08-25T02:56:33.956Z,6.10
2022-08-25T02:59:02.045Z,6.10
2022-08-25T03:01:30.685Z,6.10
2022-08-25T03:03:58.938Z,6.10
2022-08-25T03:06:28.096Z,6.10
2022-08-25T03:08:55.828Z,6.10
2022-08-25T03:11:24.156Z,6.10
2022-08-25T03:13:51.528Z,6.10
2022-08-25T03:16:20.614Z,6.10
2022-08-25T03:18:48.631Z,6.10
2022-08-25T03:21:16.648Z,6.10
2022-08-25T03:23:45.853Z,6.10
2022-08-25T03:26:31.730Z,6.10
2022-08-25T03:29:00.662Z,6.10
2022-08-25T03:31:33.000Z,6.20
2022-08-25T03:34:01.662Z,6.20
2022-08-25T03:36:29.925Z,6.10
2022-08-25T03:38:58.010Z,6.20
2022-08-25T03:41:31.077Z,6.20
2022-08-25T03:43:59.754Z,6.20
2022-08-25T03:46:30.449Z,6.20
2022-08-25T03:48:58.587Z,6.20
2022-08-25T03:51:32.235Z,6.20
2022-08-25T03:54:00.990Z,6.20
2022-08-25T03:56:29.016Z,6.20
2022-08-25T03:58:57.095Z,6.30
2022-08-25T04:01:25.639Z,6.30
2022-08-25T04:03:53.129Z,6.30
2022-08-25T04:06:21.287Z,6.30
2022-08-25T04:08:48.755Z,6.40
2022-08-25T04:11:21.389Z,6.40
2022-08-25T04:13:49.371Z,6.40
2022-08-25T04:16:23.122Z,6.50
2022-08-25T04:18:52.417Z,6.50
2022-08-25T04:21:20.508Z,6.50
2022-08-25T04:23:49.310Z,6.60
2022-08-25T04:26:25.148Z,6.60
2022-08-25T04:28:52.891Z,6.60
2022-08-25T04:31:22.346Z,6.70
2022-08-25T04:33:50.263Z,6.70
2022-08-25T04:36:28.746Z,6.70
2022-08-25T04:39:09.677Z,6.80
2022-08-25T04:41:44.029Z,6.80
2022-08-25T04:44:11.491Z,6.90
2022-08-25T04:46:39.390Z,7.00
2022-08-25T04:49:07.090Z,7.10
2022-08-25T04:51:41.193Z,7.30
2022-08-25T04:54:13.044Z,7.50
2022-08-25T04:56:41.781Z,7.60
2022-08-25T04:59:12.237Z,7.70
2022-08-25T05:01:46.328Z,7.70
2022-08-25T05:04:28.350Z,7.80
2022-08-25T05:06:57.633Z,7.90
2022-08-25T05:09:25.950Z,8.10
2022-08-25T05:11:53.997Z,8.20
2022-08-25T05:14:25.633Z,8.30
2022-08-25T05:16:58.904Z,8.50
2022-08-25T05:19:27.705Z,8.70
2022-08-25T05:21:55.192Z,8.80
2022-08-25T05:24:26.853Z,8.90
2022-08-25T05:26:54.085Z,9.10
2022-08-25T05:29:21.775Z,9.40
2022-08-25T05:31:50.763Z,9.60
2022-08-25T05:34:19.631Z,10.00
2022-08-25T05:36:48.000Z,10.70
2022-08-25T05:39:15.605Z,11.80
2022-08-25T05:41:43.084Z,12.50
2022-08-25T05:44:10.679Z,13.00
2022-08-25T05:46:38.207Z,13.30
2022-08-25T05:49:05.672Z,13.40
2022-08-25T05:51:33.572Z,13.50
2022-08-25T05:54:00.862Z,13.90
2022-08-25T05:56:28.061Z,15.60
2022-08-25T05:58:55.970Z,18.00
2022-08-25T06:01:45.456Z,20.90
2022-08-25T06:04:16.019Z,23.70
2022-08-25T06:06:43.958Z,26.30
2022-08-25T06:09:11.419Z,28.30
2022-08-25T06:11:40.289Z,29.70
2022-08-25T06:14:09.120Z,31.00
2022-08-25T06:16:36.905Z,31.80
2022-08-25T06:19:05.063Z,32.20
2022-08-25T06:21:32.702Z,32.70
2022-08-25T06:24:00.141Z,33.90
2022-08-25T06:26:27.473Z,35.20
2022-08-25T06:28:55.101Z,35.90
2022-08-25T06:31:23.049Z,37.10
2022-08-25T06:33:51.965Z,36.90
2022-08-25T06:36:19.497Z,37.20
2022-08-25T06:38:48.141Z,37.90
2022-08-25T06:41:16.881Z,36.00
2022-08-25T06:43:48.934Z,33.30
2022-08-25T06:46:21.623Z,31.80
2022-08-25T06:52:12.276Z,28.20
2022-08-25T06:54:40.309Z,28.70
2022-08-25T06:57:08.704Z,30.30
2022-08-25T06:59:37.155Z,32.10
2022-08-25T07:02:08.866Z,33.10
2022-08-25T07:04:36.753Z,34.70
2022-08-25T07:07:04.597Z,36.60
2022-08-25T07:09:35.229Z,37.70
2022-08-25T07:12:05.872Z,37.50
2022-08-25T07:14:33.197Z,38.30
2022-08-25T07:17:01.922Z,39.80
2022-08-25T07:19:30.205Z,40.50
2022-08-25T07:21:57.744Z,41.40
2022-08-25T07:24:25.246Z,41.60
2022-08-25T07:26:53.033Z,41.40
2022-08-25T07:29:32.859Z,39.50
2022-08-25T07:32:04.250Z,37.40
2022-08-25T07:34:52.827Z,38.70
2022-08-25T07:40:14.937Z,40.80
2022-08-25T07:42:43.063Z,40.90
2022-08-25T07:45:11.992Z,40.70
2022-08-25T07:47:40.041Z,40.30
2022-08-25T07:50:09.316Z,39.40
2022-08-25T07:52:36.943Z,40.30
2022-08-25T07:55:11.168Z,40.80
2022-08-25T07:57:41.147Z,41.00
2022-08-25T08:00:14.643Z,42.20
2022-08-25T08:02:42.749Z,41.30
2022-08-25T08:05:12.065Z,40.90
2022-08-25T08:07:43.334Z,41.70
2022-08-25T08:10:48.035Z,42.50
2022-08-25T08:13:02.990Z,43.00
2022-08-25T08:15:30.840Z,43.70
2022-08-25T08:17:59.883Z,43.60
2022-08-25T08:20:29.136Z,40.10
2022-08-25T08:22:56.438Z,39.30
2022-08-25T08:25:27.088Z,37.00
2022-08-25T08:27:56.032Z,35.30
2022-08-25T08:30:26.072Z,34.30
2022-08-25T08:33:12.033Z,32.80
2022-08-25T08:35:41.505Z,31.80
2022-08-25T08:38:17.204Z,30.50
2022-08-25T08:41:33.871Z,32.10
2022-08-25T08:44:24.056Z,34.80
2022-08-25T08:47:15.741Z,36.70
2022-08-25T08:49:59.069Z,35.00
2022-08-25T08:52:49.752Z,36.30
2022-08-25T08:55:39.433Z,31.90
2022-08-25T08:58:17.399Z,32.80
2022-08-25T09:00:52.669Z,33.50
2022-08-25T09:03:36.689Z,33.70
2022-08-25T09:06:22.742Z,33.20
2022-08-25T09:08:50.478Z,31.60
2022-08-25T09:11:42.365Z,30.60
2022-08-25T09:14:33.365Z,30.00
2022-08-25T09:17:09.081Z,28.50
2022-08-25T09:19:50.778Z,27.80
2022-08-25T09:23:01.285Z,27.50
2022-08-25T09:25:59.416Z,27.60
2022-08-25T09:28:33.661Z,27.20
2022-08-25T09:31:05.627Z,27.60
2022-08-25T09:33:35.859Z,27.10
2022-08-25T09:36:06.138Z,25.60
2022-08-25T09:38:36.183Z,26.10
2022-08-25T09:41:03.903Z,26.40
2022-08-25T09:43:35.959Z,26.40
2022-08-25T09:46:11.253Z,26.20
2022-08-25T09:48:56.943Z,26.30
2022-08-25T09:51:38.197Z,26.70
2022-08-25T09:54:13.336Z,26.30
2022-08-25T09:56:54.410Z,26.80
2022-08-25T09:59:34.337Z,27.10
2022-08-25T10:02:15.045Z,26.40
2022-08-25T10:04:43.169Z,26.10
2022-08-25T10:07:34.972Z,25.40
2022-08-25T10:10:18.617Z,25.90
2022-08-25T10:12:51.551Z,26.30
2022-08-25T10:15:35.623Z,25.40
2022-08-25T10:18:26.846Z,25.50
2022-08-25T10:21:21.000Z,25.50
2022-08-25T10:23:55.969Z,25.50
2022-08-25T10:26:35.231Z,25.10
2022-08-25T10:29:18.032Z,25.10
2022-08-25T10:31:52.269Z,25.70
2022-08-25T10:34:32.477Z,26.00
2022-08-25T10:37:32.965Z,26.10
2022-08-25T10:40:11.075Z,26.20
2022-08-25T10:42:42.681Z,26.30
2022-08-25T10:45:37.157Z,26.00
2022-08-25T10:48:22.754Z,25.70
2022-08-25T10:51:07.883Z,25.80
2022-08-25T10:53:57.710Z,25.70
2022-08-25T10:57:01.978Z,25.70
2022-08-25T10:59:55.905Z,25.40
2022-08-25T11:02:35.380Z,25.00
2022-08-25T11:05:07.133Z,24.40
2022-08-25T11:07:38.978Z,24.60
2022-08-25T11:10:17.080Z,25.00
2022-08-25T11:12:49.836Z,25.40
2022-08-25T11:15:25.862Z,25.00
2022-08-25T11:18:02.062Z,24.70
2022-08-25T11:20:37.985Z,25.30
2022-08-25T11:23:21.892Z,25.60
2022-08-25T11:26:01.874Z,26.00
2022-08-25T11:28:53.120Z,25.60
2022-08-25T11:31:23.019Z,25.40
2022-08-25T11:33:51.744Z,24.70
2022-08-25T11:36:29.530Z,25.20
2022-08-25T11:38:59.782Z,25.50
2022-08-25T11:41:56.666Z,25.80
2022-08-25T11:44:27.156Z,25.40
2022-08-25T11:47:00.839Z,24.80
2022-08-25T11:49:47.129Z,24.50
2022-08-25T11:52:34.697Z,24.60
2022-08-25T11:55:22.988Z,24.60
2022-08-25T11:58:13.034Z,24.90
2022-08-25T12:00:44.448Z,25.20
2022-08-25T12:03:36.700Z,25.70
2022-08-25T12:06:28.195Z,25.30
2022-08-25T12:09:01.674Z,25.20
2022-08-25T12:11:44.239Z,25.10
2022-08-25T12:14:19.510Z,25.30
2022-08-25T12:16:56.162Z,25.50
2022-08-25T12:19:36.002Z,25.90
2022-08-25T12:22:04.035Z,25.60
2022-08-25T12:24:47.654Z,25.60
2022-08-25T12:27:26.911Z,25.60
2022-08-25T12:30:18.697Z,25.50
2022-08-25T12:33:09.989Z,25.30
2022-08-25T12:36:00.582Z,25.10
2022-08-25T12:38:43.655Z,25.50
2022-08-25T12:41:18.720Z,25.50
2022-08-25T12:43:48.780Z,25.60
2022-08-25T12:46:27.050Z,25.40
2022-08-25T12:48:57.832Z,25.40
2022-08-25T12:51:40.064Z,25.00
2022-08-25T12:54:47.705Z,24.70
2022-08-25T12:57:41.983Z,24.80
2022-08-25T13:00:18.432Z,25.00
2022-08-25T13:03:15.951Z,25.30
2022-08-25T13:05:43.492Z,25.60
2022-08-25T13:08:15.376Z,25.50
2022-08-25T13:11:12.801Z,25.00
2022-08-25T13:14:15.359Z,25.30
2022-08-25T13:16:56.396Z,24.90
2022-08-25T13:19:25.804Z,25.20
2022-08-25T13:21:54.618Z,25.20
2022-08-25T13:24:26.491Z,25.20
2022-08-25T13:27:01.228Z,25.40
2022-08-25T13:29:36.853Z,25.50
2022-08-25T13:32:09.768Z,25.40
2022-08-25T13:34:43.096Z,25.20
2022-08-25T13:37:31.470Z,25.20
2022-08-25T13:40:24.728Z,24.80
2022-08-25T13:43:06.471Z,24.80
2022-08-25T13:45:41.474Z,25.00
2022-08-25T13:48:20.976Z,25.30
2022-08-25T13:50:52.923Z,25.50
2022-08-25T13:53:26.366Z,25.00
2022-08-25T13:55:58.543Z,24.90
2022-08-25T13:58:39.059Z,24.70
2022-08-25T14:01:43.880Z,24.60
2022-08-25T14:04:50.793Z,24.80
2022-08-25T14:07:23.507Z,25.00
2022-08-25T14:09:53.888Z,24.80
2022-08-25T14:12:40.167Z,24.60
2022-08-25T14:15:22.866Z,24.50
2022-08-25T14:18:19.562Z,24.30
2022-08-25T14:20:50.819Z,24.50
2022-08-25T14:23:25.845Z,24.80
2022-08-25T14:25:57.030Z,25.10
2022-08-25T14:28:27.630Z,25.00
2022-08-25T14:31:30.204Z,25.30
2022-08-25T14:34:02.798Z,25.20
2022-08-25T14:36:31.659Z,24.90
2022-08-25T14:39:00.720Z,24.80
2022-08-25T14:41:29.830Z,24.80
2022-08-25T14:43:57.378Z,24.90
2022-08-25T14:46:28.096Z,24.90
2022-08-25T14:49:01.168Z,24.90
2022-08-25T14:51:32.742Z,25.00
2022-08-25T14:54:03.239Z,24.50
2022-08-25T14:56:32.005Z,24.70
2022-08-25T14:59:00.267Z,24.80
2022-08-25T15:01:30.054Z,24.40
2022-08-25T15:04:12.998Z,24.40
2022-08-25T15:06:43.884Z,24.30
2022-08-25T15:09:16.732Z,24.50
2022-08-25T15:11:50.701Z,24.30
2022-08-25T15:14:29.176Z,24.10
2022-08-25T15:17:02.422Z,24.10
2022-08-25T15:19:30.194Z,24.30
2022-08-25T15:21:58.272Z,24.30
2022-08-25T15:24:27.892Z,24.20
2022-08-25T15:27:01.125Z,24.10
2022-08-25T15:29:31.153Z,24.20
2022-08-25T15:32:00.631Z,24.10
2022-08-25T15:34:32.314Z,24.10
2022-08-25T15:37:06.366Z,24.20
2022-08-25T15:39:33.734Z,24.40
2022-08-25T15:42:01.157Z,24.40
2022-08-25T15:44:29.885Z,24.60
2022-08-25T15:46:59.368Z,24.80
2022-08-25T15:49:29.697Z,24.70
2022-08-25T15:52:00.757Z,24.70
2022-08-25T15:54:28.945Z,24.40
2022-08-25T15:56:58.326Z,24.60
2022-08-25T15:59:29.016Z,24.60
2022-08-25T16:01:57.288Z,24.60
2022-08-25T16:04:28.217Z,24.10
2022-08-25T16:06:56.544Z,24.10
2022-08-25T16:09:26.168Z,24.30
2022-08-25T16:11:56.662Z,24.10
2022-08-25T16:14:25.936Z,23.60
2022-08-25T16:16:58.504Z,23.50
2022-08-25T16:19:30.216Z,23.20
2022-08-25T16:21:58.860Z,23.40
2022-08-25T16:24:27.622Z,23.50
2022-08-25T16:27:10.919Z,23.10
2022-08-25T16:29:41.531Z,23.10
2022-08-25T16:32:11.658Z,22.70
2022-08-25T16:34:42.178Z,22.40
2022-08-25T16:37:09.791Z,22.50
2022-08-25T16:39:40.024Z,22.40
2022-08-25T16:42:08.841Z,22.30
2022-08-25T16:44:37.955Z,22.20
2022-08-25T16:47:08.971Z,22.10
2022-08-25T16:49:36.845Z,21.90
2022-08-25T16:52:28.608Z,21.60
2022-08-25T16:55:13.209Z,21.50
2022-08-25T16:57:43.294Z,21.20
2022-08-25T17:00:14.205Z,21.10
2022-08-25T17:02:42.589Z,20.90
2022-08-25T17:05:11.570Z,20.60
2022-08-25T17:07:39.066Z,20.30
2022-08-25T17:10:07.586Z,20.40
2022-08-25T17:12:40.475Z,20.20
2022-08-25T17:15:08.469Z,20.00
2022-08-25T17:17:37.232Z,19.80
2022-08-25T17:20:05.108Z,19.70
2022-08-25T17:22:32.514Z,19.60
2022-08-25T17:25:01.153Z,19.50
2022-08-25T17:27:29.545Z,19.30
2022-08-25T17:29:58.425Z,19.10
2022-08-25T17:32:30.196Z,18.90
2022-08-25T17:35:00.190Z,18.70
2022-08-25T17:37:27.546Z,18.50
2022-08-25T17:40:02.623Z,18.40
2022-08-25T17:42:32.060Z,18.30
2022-08-25T17:45:00.063Z,18.10
2022-08-25T17:47:46.974Z,17.90
2022-08-25T17:50:15.760Z,17.70
2022-08-25T17:52:45.140Z,17.50
2022-08-25T17:55:12.567Z,17.50
2022-08-25T17:57:44.093Z,17.30
2022-08-25T18:00:16.895Z,17.20
2022-08-25T18:03:25.913Z,17.00
2022-08-25T18:10:05.137Z,16.50
2022-08-25T18:12:32.786Z,16.40
2022-08-25T18:15:00.795Z,16.20
2022-08-25T18:17:28.516Z,16.00
2022-08-25T18:19:59.283Z,15.80
2022-08-25T18:27:29.889Z,15.30
2022-08-25T18:29:58.094Z,15.10
2022-08-25T18:32:26.250Z,15.00
2022-08-25T18:34:54.885Z,14.90
2022-08-25T18:37:41.947Z,14.70
2022-08-25T18:40:25.847Z,14.60
2022-08-25T18:42:56.157Z,14.50
2022-08-25T18:45:28.433Z,14.30
2022-08-25T18:48:07.215Z,14.20
2022-08-25T18:50:39.005Z,14.00
2022-08-25T18:53:07.212Z,14.00
2022-08-25T18:55:35.754Z,14.00
2022-08-25T18:58:06.141Z,14.00
2022-08-25T19:00:34.894Z,13.90
2022-08-25T19:03:02.307Z,13.90
2022-08-25T19:10:00.528Z,13.60
2022-08-25T19:12:28.417Z,13.30
2022-08-25T19:14:57.932Z,13.10
2022-08-25T19:22:03.720Z,13.20
2022-08-25T19:24:31.701Z,12.90
2022-08-25T19:27:40.319Z,12.70
2022-08-25T19:30:10.297Z,12.60
2022-08-25T19:32:43.344Z,12.40
2022-08-25T19:35:31.866Z,12.40
2022-08-25T19:38:00.533Z,12.20
2022-08-25T19:41:14.615Z,12.10
2022-08-25T19:43:56.609Z,12.10
2022-08-25T19:46:54.395Z,12.00
2022-08-25T19:49:36.821Z,12.00
2022-08-25T19:52:13.020Z,12.00
2022-08-25T19:54:58.186Z,12.00
2022-08-25T19:57:49.147Z,11.90
2022-08-25T20:00:30.793Z,12.00
2022-08-25T20:03:41.031Z,11.90
2022-08-25T20:06:22.581Z,11.90
2022-08-25T20:08:59.003Z,11.60
2022-08-25T20:11:29.402Z,11.50
2022-08-25T20:14:03.006Z,11.60
2022-08-25T20:16:31.057Z,11.70
2022-08-25T20:18:58.741Z,11.60
2022-08-25T20:21:26.477Z,11.50
2022-08-25T20:24:12.116Z,11.30
2022-08-25T20:26:42.952Z,11.30
2022-08-25T20:29:11.144Z,11.40
2022-08-25T20:31:39.781Z,11.20
2022-08-25T20:34:20.271Z,11.10
2022-08-25T20:37:06.815Z,10.90
2022-08-25T20:40:41.147Z,10.80
2022-08-25T20:43:13.870Z,10.60
2022-08-25T20:45:41.185Z,10.50
2022-08-25T20:48:10.111Z,10.40
2022-08-25T20:50:39.154Z,10.40
2022-08-25T20:53:10.181Z,10.40
2022-08-25T20:55:43.678Z,10.30
2022-08-25T20:58:14.120Z,10.20
2022-08-25T21:00:46.302Z,10.20
2022-08-25T21:03:13.514Z,10.10
2022-08-25T21:05:42.198Z,10.10
2022-08-25T21:08:10.464Z,10.00
2022-08-25T21:10:38.089Z,10.00
2022-08-25T21:13:06.576Z,9.90
2022-08-25T21:15:33.709Z,9.90
2022-08-25T21:18:03.003Z,9.80
2022-08-25T21:20:30.498Z,9.80
2022-08-25T21:22:57.718Z,9.70
2022-08-25T21:25:24.986Z,9.70
2022-08-25T21:27:52.200Z,9.70
2022-08-25T21:30:20.146Z,9.70
2022-08-25T21:32:53.298Z,9.60
2022-08-25T21:35:24.783Z,9.50
2022-08-25T21:37:53.492Z,9.50
2022-08-25T21:40:22.033Z,9.50
2022-08-25T21:42:49.485Z,9.50
2022-08-25T21:45:17.259Z,9.40
2022-08-25T21:47:48.747Z,9.40
2022-08-25T21:50:16.033Z,9.30
2022-08-25T21:52:43.394Z,9.30
2022-08-25T21:55:16.111Z,9.20
2022-08-25T21:57:43.946Z,9.10
2022-08-25T22:00:13.399Z,9.20
2022-08-25T22:02:40.717Z,9.30
2022-08-25T22:05:19.424Z,9.30
2022-08-25T22:07:47.486Z,9.20
2022-08-25T22:10:17.975Z,9.30
2022-08-25T22:12:47.050Z,9.30
2022-08-25T22:15:15.968Z,9.20
2022-08-25T22:17:43.312Z,9.10
2022-08-25T22:20:11.829Z,9.10
2022-08-25T22:22:39.008Z,9.10
2022-08-25T22:25:06.563Z,9.10
2022-08-25T22:27:35.503Z,9.00
2022-08-25T22:30:06.092Z,8.90
2022-08-25T22:32:33.543Z,9.00
2022-08-25T22:35:01.623Z,9.10
2022-08-25T22:37:30.365Z,9.00
2022-08-25T22:39:58.133Z,8.80
2022-08-25T22:42:25.790Z,8.70
2022-08-25T22:44:54.163Z,8.80
2022-08-25T22:47:21.623Z,8.80
2022-08-25T22:49:49.142Z,8.80
2022-08-25T22:52:16.322Z,8.70
2022-08-25T22:54:44.242Z,8.60
2022-08-25T22:57:12.167Z,8.60
2022-08-25T22:59:39.688Z,8.50
2022-08-25T23:02:07.668Z,8.50
2022-08-25T23:04:37.189Z,8.40
2022-08-25T23:07:09.115Z,8.50
2022-08-25T23:09:37.331Z,8.60
2022-08-25T23:12:05.204Z,8.60
2022-08-25T23:14:38.111Z,8.50
2022-08-25T23:17:09.655Z,8.40
2022-08-25T23:19:36.911Z,8.40
2022-08-25T23:22:10.993Z,8.40
2022-08-25T23:24:43.085Z,8.30
2022-08-25T23:27:13.540Z,8.20
2022-08-25T23:29:43.882Z,8.20
2022-08-25T23:32:14.047Z,8.20
2022-08-25T23:34:43.601Z,8.10
2022-08-25T23:37:15.200Z,8.10
2022-08-25T23:39:45.715Z,8.10
2022-08-25T23:42:13.004Z,8.10
2022-08-25T23:44:40.277Z,8.10
2022-08-25T23:47:07.544Z,8.10
2022-08-25T23:49:39.904Z,8.00
2022-08-25T23:52:07.388Z,8.00
2022-08-25T23:54:34.684Z,8.00
2022-08-25T23:57:02.573Z,8.00
2022-08-25T23:59:29.814Z,8.00
